Milldale, Connecticut
Current Conditions -  °F | °C
As of 12:53 PM on Thursday 18 Dec 2014 (Local Time) from KMMK Reporting Station
Overcast Overcast  
Wind Chill: 34°   Ceiling: 3600
Heat Index: 40°   Visibility: 10mi
Dew Point: 26°   Wind: 8mph
Humidity: 58%   Direction: 310°NW
Pressure: 29.88"   Gusts: 21mph
Location:  41.57°N, 72.89°W
Report Text: KMMK 181753Z AUTO 31007G18KT 270V330 10SM OVC036 04/M03 A2988 RMK AO2 SLP119 T00441033 10050 20017 58014 TSNO
Loading
Personal Weather Stations






























Interactive Weather Map New forecast layout! Learn more

10-Day Weather Forecast

Advertisements
Track Severe Weather on mobile